sensor_id;sensor_type;location;lat;lon;timestamp;pressure;altitude;pressure_sealevel;temperature;humidity
77526;BME280;66627;29.424;-98.496;2023-02-23T00:00:50;97761.73;;;31.10;15.13
77526;BME280;66627;29.424;-98.496;2023-02-23T00:03:15;97767.61;;;31.38;14.96
77526;BME280;66627;29.424;-98.496;2023-02-23T00:05:40;97772.31;;;31.64;14.92
77526;BME280;66627;29.424;-98.496;2023-02-23T00:08:05;97772.91;;;31.29;15.24
77526;BME280;66627;29.424;-98.496;2023-02-23T00:10:31;97780.29;;;31.13;15.88
77526;BME280;66627;29.424;-98.496;2023-02-23T00:12:56;97787.43;;;30.92;15.46
77526;BME280;66627;29.424;-98.496;2023-02-23T00:15:21;97785.65;;;30.74;15.71
77526;BME280;66627;29.424;-98.496;2023-02-23T00:17:46;97786.19;;;30.76;15.51
77526;BME280;66627;29.424;-98.496;2023-02-23T00:20:12;97787.52;;;30.51;16.17
77526;BME280;66627;29.424;-98.496;2023-02-23T00:22:38;97790.95;;;30.15;15.80
77526;BME280;66627;29.424;-98.496;2023-02-23T00:25:01;97793.46;;;30.12;16.02
77526;BME280;66627;29.424;-98.496;2023-02-23T00:27:26;97799.87;;;30.04;16.29
77526;BME280;66627;29.424;-98.496;2023-02-23T00:29:52;97803.67;;;29.62;17.02
77526;BME280;66627;29.424;-98.496;2023-02-23T00:32:17;97808.61;;;29.09;17.63
77526;BME280;66627;29.424;-98.496;2023-02-23T00:34:42;97805.89;;;29.62;17.19
77526;BME280;66627;29.424;-98.496;2023-02-23T00:37:07;97810.38;;;29.33;17.08
77526;BME280;66627;29.424;-98.496;2023-02-23T00:39:32;97807.86;;;29.88;16.89
77526;BME280;66627;29.424;-98.496;2023-02-23T00:41:57;97807.25;;;29.07;17.23
77526;BME280;66627;29.424;-98.496;2023-02-23T00:44:24;97812.03;;;29.07;17.52
77526;BME280;66627;29.424;-98.496;2023-02-23T00:46:50;97818.60;;;29.33;17.88
77526;BME280;66627;29.424;-98.496;2023-02-23T00:49:14;97818.59;;;28.98;18.34
77526;BME280;66627;29.424;-98.496;2023-02-23T00:51:40;97819.72;;;29.06;18.24
77526;BME280;66627;29.424;-98.496;2023-02-23T00:54:05;97821.84;;;28.17;18.43
77526;BME280;66627;29.424;-98.496;2023-02-23T00:56:30;97825.44;;;27.81;18.77
77526;BME280;66627;29.424;-98.496;2023-02-23T00:58:55;97825.41;;;27.53;19.19
77526;BME280;66627;29.424;-98.496;2023-02-23T01:01:20;97827.38;;;26.61;19.80
77526;BME280;66627;29.424;-98.496;2023-02-23T01:03:45;97828.36;;;26.58;19.82
77526;BME280;66627;29.424;-98.496;2023-02-23T01:06:12;97830.03;;;26.82;19.69
77526;BME280;66627;29.424;-98.496;2023-02-23T01:08:38;97832.72;;;27.13;19.56
77526;BME280;66627;29.424;-98.496;2023-02-23T01:11:07;97835.33;;;27.69;19.30
77526;BME280;66627;29.424;-98.496;2023-02-23T01:13:26;97835.84;;;27.84;19.01
77526;BME280;66627;29.424;-98.496;2023-02-23T01:15:51;97835.42;;;28.15;19.10
77526;BME280;66627;29.424;-98.496;2023-02-23T01:18:17;97836.72;;;28.35;19.05
77526;BME280;66627;29.424;-98.496;2023-02-23T01:20:41;97836.61;;;27.83;19.47
77526;BME280;66627;29.424;-98.496;2023-02-23T01:23:07;97842.36;;;27.54;20.37
77526;BME280;66627;29.424;-98.496;2023-02-23T01:25:33;97843.85;;;27.32;20.38
77526;BME280;66627;29.424;-98.496;2023-02-23T01:27:57;97844.47;;;27.11;20.21
77526;BME280;66627;29.424;-98.496;2023-02-23T01:30:23;97847.62;;;27.89;20.01
77526;BME280;66627;29.424;-98.496;2023-02-23T01:32:48;97853.82;;;26.51;20.62
77526;BME280;66627;29.424;-98.496;2023-02-23T01:35:13;97857.06;;;27.68;20.22
77526;BME280;66627;29.424;-98.496;2023-02-23T01:37:40;97858.57;;;27.43;20.43
77526;BME280;66627;29.424;-98.496;2023-02-23T01:40:05;97857.79;;;26.79;20.15
77526;BME280;66627;29.424;-98.496;2023-02-23T01:42:29;97859.75;;;26.88;20.14
77526;BME280;66627;29.424;-98.496;2023-02-23T01:47:20;97865.64;;;26.82;20.97
77526;BME280;66627;29.424;-98.496;2023-02-23T01:49:45;97872.45;;;27.22;21.24
77526;BME280;66627;29.424;-98.496;2023-02-23T01:52:13;97882.15;;;27.07;22.26
77526;BME280;66627;29.424;-98.496;2023-02-23T01:54:37;97894.19;;;26.95;21.99
77526;BME280;66627;29.424;-98.496;2023-02-23T01:57:02;97901.99;;;26.30;22.44
77526;BME280;66627;29.424;-98.496;2023-02-23T01:59:30;97908.71;;;26.22;22.48
77526;BME280;66627;29.424;-98.496;2023-02-23T02:01:52;97914.18;;;26.39;22.28
77526;BME280;66627;29.424;-98.496;2023-02-23T02:04:19;97917.51;;;26.44;21.93
77526;BME280;66627;29.424;-98.496;2023-02-23T02:06:44;97914.57;;;26.10;22.58
77526;BME280;66627;29.424;-98.496;2023-02-23T02:09:12;97922.33;;;26.31;22.85
77526;BME280;66627;29.424;-98.496;2023-02-23T02:11:34;97931.52;;;25.81;23.39
77526;BME280;66627;29.424;-98.496;2023-02-23T02:14:02;97932.46;;;25.70;23.38
77526;BME280;66627;29.424;-98.496;2023-02-23T02:16:34;97934.93;;;25.73;24.99
77526;BME280;66627;29.424;-98.496;2023-02-23T02:19:04;97940.53;;;26.23;25.04
77526;BME280;66627;29.424;-98.496;2023-02-23T02:23:51;97948.05;;;25.63;28.04
77526;BME280;66627;29.424;-98.496;2023-02-23T02:26:14;97947.66;;;25.79;28.78
77526;BME280;66627;29.424;-98.496;2023-02-23T02:28:48;97946.66;;;26.15;28.86
77526;BME280;66627;29.424;-98.496;2023-02-23T02:38:25;97954.71;;;26.05;30.56
77526;BME280;66627;29.424;-98.496;2023-02-23T02:40:44;97957.10;;;26.45;30.37
77526;BME280;66627;29.424;-98.496;2023-02-23T02:43:09;97957.46;;;26.10;30.69
77526;BME280;66627;29.424;-98.496;2023-02-23T02:45:37;97958.92;;;26.38;30.41
77526;BME280;66627;29.424;-98.496;2023-02-23T02:48:01;97959.82;;;26.70;30.43
77526;BME280;66627;29.424;-98.496;2023-02-23T02:50:26;97961.21;;;26.49;30.59
77526;BME280;66627;29.424;-98.496;2023-02-23T02:52:51;97968.60;;;26.22;30.65
77526;BME280;66627;29.424;-98.496;2023-02-23T02:55:21;97972.73;;;26.55;31.00
77526;BME280;66627;29.424;-98.496;2023-02-23T02:57:39;97972.03;;;26.97;30.22
77526;BME280;66627;29.424;-98.496;2023-02-23T03:00:05;97981.68;;;26.88;30.36
77526;BME280;66627;29.424;-98.496;2023-02-23T03:02:30;97989.10;;;26.60;31.03
77526;BME280;66627;29.424;-98.496;2023-02-23T03:04:55;97993.48;;;26.67;31.12
77526;BME280;66627;29.424;-98.496;2023-02-23T03:07:25;97995.58;;;26.68;31.20
77526;BME280;66627;29.424;-98.496;2023-02-23T03:09:50;97994.73;;;25.98;31.96
77526;BME280;66627;29.424;-98.496;2023-02-23T03:12:18;98001.59;;;25.75;32.42
77526;BME280;66627;29.424;-98.496;2023-02-23T03:14:42;98002.68;;;25.53;32.97
77526;BME280;66627;29.424;-98.496;2023-02-23T03:17:05;98000.19;;;25.44;33.37
77526;BME280;66627;29.424;-98.496;2023-02-23T03:19:28;98002.22;;;25.69;34.31
77526;BME280;66627;29.424;-98.496;2023-02-23T03:21:55;98002.36;;;26.00;34.30
77526;BME280;66627;29.424;-98.496;2023-02-23T03:24:23;98014.52;;;25.73;35.46
77526;BME280;66627;29.424;-98.496;2023-02-23T03:26:48;98016.97;;;25.38;36.77
77526;BME280;66627;29.424;-98.496;2023-02-23T03:29:12;98018.36;;;24.72;37.53
77526;BME280;66627;29.424;-98.496;2023-02-23T03:31:39;98021.08;;;24.87;37.55
77526;BME280;66627;29.424;-98.496;2023-02-23T03:34:06;98033.69;;;24.60;38.28
77526;BME280;66627;29.424;-98.496;2023-02-23T03:36:26;98033.77;;;24.65;39.07
77526;BME280;66627;29.424;-98.496;2023-02-23T03:38:55;98040.89;;;24.77;39.00
77526;BME280;66627;29.424;-98.496;2023-02-23T03:41:15;98042.78;;;24.77;39.22
77526;BME280;66627;29.424;-98.496;2023-02-23T03:43:46;98043.37;;;24.56;39.65
77526;BME280;66627;29.424;-98.496;2023-02-23T03:46:09;98045.40;;;24.43;39.80
77526;BME280;66627;29.424;-98.496;2023-02-23T03:48:31;98049.43;;;25.25;39.00
77526;BME280;66627;29.424;-98.496;2023-02-23T03:50:59;98055.38;;;24.94;39.54
77526;BME280;66627;29.424;-98.496;2023-02-23T03:53:26;98057.61;;;25.00;39.43
77526;BME280;66627;29.424;-98.496;2023-02-23T03:55:50;98056.39;;;24.51;40.17
77526;BME280;66627;29.424;-98.496;2023-02-23T03:58:16;98061.99;;;24.40;40.18
77526;BME280;66627;29.424;-98.496;2023-02-23T04:00:43;98065.12;;;24.64;40.47
77526;BME280;66627;29.424;-98.496;2023-02-23T04:03:06;98072.26;;;24.68;40.50
77526;BME280;66627;29.424;-98.496;2023-02-23T04:05:30;98075.88;;;24.11;40.70
77526;BME280;66627;29.424;-98.496;2023-02-23T04:07:56;98077.24;;;24.57;40.97
77526;BME280;66627;29.424;-98.496;2023-02-23T04:10:21;98082.25;;;24.68;41.20
77526;BME280;66627;29.424;-98.496;2023-02-23T04:12:51;98088.02;;;24.49;41.59
77526;BME280;66627;29.424;-98.496;2023-02-23T04:15:16;98093.43;;;24.26;42.11
77526;BME280;66627;29.424;-98.496;2023-02-23T04:17:38;98095.02;;;24.34;42.20
77526;BME280;66627;29.424;-98.496;2023-02-23T04:20:02;98097.72;;;24.34;42.41
77526;BME280;66627;29.424;-98.496;2023-02-23T04:22:28;98103.49;;;24.30;42.70
77526;BME280;66627;29.424;-98.496;2023-02-23T04:24:54;98103.48;;;24.22;43.37
77526;BME280;66627;29.424;-98.496;2023-02-23T04:27:19;98105.41;;;23.99;43.45
77526;BME280;66627;29.424;-98.496;2023-02-23T04:29:44;98112.54;;;23.52;44.34
77526;BME280;66627;29.424;-98.496;2023-02-23T04:32:13;98116.46;;;24.04;43.97
77526;BME280;66627;29.424;-98.496;2023-02-23T04:34:36;98113.91;;;24.60;43.12
77526;BME280;66627;29.424;-98.496;2023-02-23T04:37:01;98114.01;;;24.34;44.14
77526;BME280;66627;29.424;-98.496;2023-02-23T04:39:26;98117.51;;;23.93;44.54
77526;BME280;66627;29.424;-98.496;2023-02-23T04:41:51;98119.24;;;24.18;44.46
77526;BME280;66627;29.424;-98.496;2023-02-23T04:44:17;98115.31;;;23.98;43.99
77526;BME280;66627;29.424;-98.496;2023-02-23T04:46:42;98123.25;;;23.80;44.96
77526;BME280;66627;29.424;-98.496;2023-02-23T04:49:07;98128.92;;;23.88;44.76
77526;BME280;66627;29.424;-98.496;2023-02-23T04:51:34;98130.94;;;23.57;45.19
77526;BME280;66627;29.424;-98.496;2023-02-23T04:53:58;98130.17;;;24.01;44.85
77526;BME280;66627;29.424;-98.496;2023-02-23T04:56:23;98130.05;;;23.71;45.49
77526;BME280;66627;29.424;-98.496;2023-02-23T04:58:49;98133.64;;;23.63;45.49
77526;BME280;66627;29.424;-98.496;2023-02-23T05:01:13;98136.63;;;24.29;44.51
77526;BME280;66627;29.424;-98.496;2023-02-23T05:03:40;98135.18;;;23.85;44.82
77526;BME280;66627;29.424;-98.496;2023-02-23T05:06:05;98136.07;;;23.77;46.00
77526;BME280;66627;29.424;-98.496;2023-02-23T05:08:30;98138.80;;;24.11;45.48
77526;BME280;66627;29.424;-98.496;2023-02-23T05:10:56;98140.48;;;23.98;45.30
77526;BME280;66627;29.424;-98.496;2023-02-23T05:13:22;98141.67;;;23.91;45.96
77526;BME280;66627;29.424;-98.496;2023-02-23T05:15:47;98141.06;;;24.30;45.36
77526;BME280;66627;29.424;-98.496;2023-02-23T05:18:12;98139.63;;;24.00;45.47
77526;BME280;66627;29.424;-98.496;2023-02-23T05:20:41;98140.28;;;24.05;45.42
77526;BME280;66627;29.424;-98.496;2023-02-23T05:23:03;98141.87;;;23.70;45.50
77526;BME280;66627;29.424;-98.496;2023-02-23T05:25:29;98141.97;;;24.01;45.55
77526;BME280;66627;29.424;-98.496;2023-02-23T05:27:55;98143.10;;;24.62;44.83
77526;BME280;66627;29.424;-98.496;2023-02-23T05:30:20;98144.74;;;24.80;44.55
77526;BME280;66627;29.424;-98.496;2023-02-23T05:32:45;98148.59;;;24.62;44.45
77526;BME280;66627;29.424;-98.496;2023-02-23T05:35:10;98153.44;;;24.63;44.83
77526;BME280;66627;29.424;-98.496;2023-02-23T05:37:36;98156.19;;;24.41;44.81
77526;BME280;66627;29.424;-98.496;2023-02-23T05:40:02;98154.24;;;24.35;44.83
77526;BME280;66627;29.424;-98.496;2023-02-23T05:42:28;98156.18;;;24.57;44.81
77526;BME280;66627;29.424;-98.496;2023-02-23T05:44:52;98156.80;;;24.63;44.89
77526;BME280;66627;29.424;-98.496;2023-02-23T05:47:18;98159.27;;;24.33;45.63
77526;BME280;66627;29.424;-98.496;2023-02-23T05:49:44;98161.44;;;24.47;45.20
77526;BME280;66627;29.424;-98.496;2023-02-23T05:52:09;98163.75;;;24.17;44.78
77526;BME280;66627;29.424;-98.496;2023-02-23T05:54:34;98166.96;;;24.37;45.15
77526;BME280;66627;29.424;-98.496;2023-02-23T05:56:59;98169.06;;;24.41;44.96
77526;BME280;66627;29.424;-98.496;2023-02-23T05:59:25;98173.92;;;24.62;45.14
77526;BME280;66627;29.424;-98.496;2023-02-23T06:01:54;98173.10;;;24.11;45.45
77526;BME280;66627;29.424;-98.496;2023-02-23T06:04:15;98175.63;;;24.23;45.19
77526;BME280;66627;29.424;-98.496;2023-02-23T06:06:41;98175.66;;;24.56;45.04
77526;BME280;66627;29.424;-98.496;2023-02-23T06:09:06;98177.80;;;24.17;45.90
77526;BME280;66627;29.424;-98.496;2023-02-23T06:11:32;98178.07;;;24.40;45.40
77526;BME280;66627;29.424;-98.496;2023-02-23T06:13:58;98182.33;;;24.28;45.47
77526;BME280;66627;29.424;-98.496;2023-02-23T06:16:23;98188.23;;;23.84;45.86
77526;BME280;66627;29.424;-98.496;2023-02-23T06:18:48;98186.53;;;23.72;46.06
77526;BME280;66627;29.424;-98.496;2023-02-23T06:21:14;98189.35;;;23.50;46.29
77526;BME280;66627;29.424;-98.496;2023-02-23T06:23:40;98189.66;;;23.47;46.45
77526;BME280;66627;29.424;-98.496;2023-02-23T06:26:04;98183.43;;;23.99;45.91
77526;BME280;66627;29.424;-98.496;2023-02-23T06:28:29;98187.97;;;23.87;45.96
77526;BME280;66627;29.424;-98.496;2023-02-23T06:30:57;98190.99;;;23.73;46.23
77526;BME280;66627;29.424;-98.496;2023-02-23T06:33:21;98193.67;;;23.67;46.00
77526;BME280;66627;29.424;-98.496;2023-02-23T06:38:12;98207.03;;;23.14;46.77
77526;BME280;66627;29.424;-98.496;2023-02-23T06:40:38;98205.97;;;23.42;46.91
77526;BME280;66627;29.424;-98.496;2023-02-23T06:43:02;98208.20;;;23.27;47.17
77526;BME280;66627;29.424;-98.496;2023-02-23T06:45:27;98210.03;;;23.41;47.29
77526;BME280;66627;29.424;-98.496;2023-02-23T06:47:53;98214.09;;;22.76;48.76
77526;BME280;66627;29.424;-98.496;2023-02-23T06:50:18;98216.48;;;23.22;47.60
77526;BME280;66627;29.424;-98.496;2023-02-23T06:52:44;98212.46;;;23.40;47.77
77526;BME280;66627;29.424;-98.496;2023-02-23T06:55:10;98213.01;;;23.33;47.62
77526;BME280;66627;29.424;-98.496;2023-02-23T06:57:35;98218.31;;;23.27;47.89
77526;BME280;66627;29.424;-98.496;2023-02-23T07:00:00;98222.10;;;23.25;48.42
77526;BME280;66627;29.424;-98.496;2023-02-23T07:02:26;98223.34;;;23.14;47.73
77526;BME280;66627;29.424;-98.496;2023-02-23T07:04:51;98225.26;;;22.98;47.74
77526;BME280;66627;29.424;-98.496;2023-02-23T07:07:16;98226.77;;;23.18;47.74
77526;BME280;66627;29.424;-98.496;2023-02-23T07:09:41;98232.57;;;22.66;48.04
77526;BME280;66627;29.424;-98.496;2023-02-23T07:12:06;98233.30;;;22.95;47.70
77526;BME280;66627;29.424;-98.496;2023-02-23T07:14:32;98232.78;;;23.20;47.53
77526;BME280;66627;29.424;-98.496;2023-02-23T07:16:57;98236.35;;;22.89;47.48
77526;BME280;66627;29.424;-98.496;2023-02-23T07:19:22;98239.33;;;23.21;47.36
77526;BME280;66627;29.424;-98.496;2023-02-23T07:21:48;98239.66;;;23.29;47.40
77526;BME280;66627;29.424;-98.496;2023-02-23T07:24:14;98240.06;;;22.76;48.67
77526;BME280;66627;29.424;-98.496;2023-02-23T07:26:39;98245.91;;;23.26;47.85
77526;BME280;66627;29.424;-98.496;2023-02-23T07:29:05;98246.53;;;22.54;48.56
77526;BME280;66627;29.424;-98.496;2023-02-23T07:31:30;98248.92;;;22.80;47.94
77526;BME280;66627;29.424;-98.496;2023-02-23T07:33:55;98252.84;;;22.95;47.77
77526;BME280;66627;29.424;-98.496;2023-02-23T07:36:21;98255.45;;;22.95;47.65
77526;BME280;66627;29.424;-98.496;2023-02-23T07:38:46;98256.48;;;23.24;47.30
77526;BME280;66627;29.424;-98.496;2023-02-23T07:41:11;98260.45;;;22.12;48.61
77526;BME280;66627;29.424;-98.496;2023-02-23T07:43:37;98263.29;;;22.96;48.20
77526;BME280;66627;29.424;-98.496;2023-02-23T07:46:03;98267.12;;;22.26;48.46
77526;BME280;66627;29.424;-98.496;2023-02-23T07:48:28;98267.15;;;21.70;49.86
77526;BME280;66627;29.424;-98.496;2023-02-23T07:50:53;98266.87;;;21.97;49.86
77526;BME280;66627;29.424;-98.496;2023-02-23T07:53:19;98273.51;;;22.26;49.13
77526;BME280;66627;29.424;-98.496;2023-02-23T07:55:44;98277.15;;;22.30;48.99
77526;BME280;66627;29.424;-98.496;2023-02-23T07:58:09;98280.58;;;22.18;48.87
77526;BME280;66627;29.424;-98.496;2023-02-23T08:00:35;98286.17;;;21.88;49.18
77526;BME280;66627;29.424;-98.496;2023-02-23T08:03:00;98288.38;;;22.00;48.90
77526;BME280;66627;29.424;-98.496;2023-02-23T08:05:26;98284.50;;;22.42;48.56
77526;BME280;66627;29.424;-98.496;2023-02-23T08:07:52;98280.40;;;21.78;49.39
77526;BME280;66627;29.424;-98.496;2023-02-23T08:10:17;98284.08;;;21.87;49.30
77526;BME280;66627;29.424;-98.496;2023-02-23T08:12:42;98287.64;;;21.54;49.76
77526;BME280;66627;29.424;-98.496;2023-02-23T08:15:09;98282.06;;;22.48;48.88
77526;BME280;66627;29.424;-98.496;2023-02-23T08:17:32;98278.82;;;22.29;49.17
77526;BME280;66627;29.424;-98.496;2023-02-23T08:19:58;98284.18;;;22.08;49.30
77526;BME280;66627;29.424;-98.496;2023-02-23T08:22:23;98283.14;;;22.43;48.91
77526;BME280;66627;29.424;-98.496;2023-02-23T08:24:48;98285.25;;;21.84;49.63
77526;BME280;66627;29.424;-98.496;2023-02-23T08:27:13;98281.93;;;21.27;50.86
77526;BME280;66627;29.424;-98.496;2023-02-23T08:29:39;98278.51;;;21.79;49.04
77526;BME280;66627;29.424;-98.496;2023-02-23T08:32:05;98281.99;;;22.23;48.79
77526;BME280;66627;29.424;-98.496;2023-02-23T08:34:29;98286.11;;;21.96;49.05
77526;BME280;66627;29.424;-98.496;2023-02-23T08:36:55;98283.12;;;22.04;49.32
77526;BME280;66627;29.424;-98.496;2023-02-23T08:39:21;98284.93;;;21.62;49.62
77526;BME280;66627;29.424;-98.496;2023-02-23T08:41:46;98289.50;;;22.19;48.75
77526;BME280;66627;29.424;-98.496;2023-02-23T08:44:11;98289.30;;;21.42;50.10
77526;BME280;66627;29.424;-98.496;2023-02-23T08:46:36;98286.19;;;21.06;50.29
77526;BME280;66627;29.424;-98.496;2023-02-23T08:49:02;98289.67;;;21.57;49.39
77526;BME280;66627;29.424;-98.496;2023-02-23T08:51:27;98291.07;;;21.56;50.13
77526;BME280;66627;29.424;-98.496;2023-02-23T08:53:52;98291.12;;;21.56;49.30
77526;BME280;66627;29.424;-98.496;2023-02-23T08:56:18;98297.15;;;21.24;50.26
77526;BME280;66627;29.424;-98.496;2023-02-23T08:58:44;98296.84;;;21.18;50.17
77526;BME280;66627;29.424;-98.496;2023-02-23T09:01:15;98299.96;;;21.39;50.10
77526;BME280;66627;29.424;-98.496;2023-02-23T09:03:35;98297.84;;;21.54;49.89
77526;BME280;66627;29.424;-98.496;2023-02-23T09:06:09;98296.14;;;21.30;50.04
77526;BME280;66627;29.424;-98.496;2023-02-23T09:08:26;98298.61;;;21.06;50.73
77526;BME280;66627;29.424;-98.496;2023-02-23T09:10:52;98297.30;;;21.17;50.93
77526;BME280;66627;29.424;-98.496;2023-02-23T09:13:17;98299.99;;;21.12;50.50
77526;BME280;66627;29.424;-98.496;2023-02-23T09:15:43;98299.11;;;21.76;49.73
77526;BME280;66627;29.424;-98.496;2023-02-23T09:18:11;98296.15;;;20.81;50.93
77526;BME280;66627;29.424;-98.496;2023-02-23T09:20:34;98300.30;;;21.24;50.03
77526;BME280;66627;29.424;-98.496;2023-02-23T09:22:59;98297.44;;;21.55;49.32
77526;BME280;66627;29.424;-98.496;2023-02-23T09:25:24;98299.71;;;20.72;51.32
77526;BME280;66627;29.424;-98.496;2023-02-23T09:27:50;98298.30;;;21.08;50.36
77526;BME280;66627;29.424;-98.496;2023-02-23T09:30:15;98300.55;;;21.24;51.39
77526;BME280;66627;29.424;-98.496;2023-02-23T09:32:40;98304.84;;;20.88;51.35
77526;BME280;66627;29.424;-98.496;2023-02-23T09:35:06;98306.35;;;21.28;50.64
77526;BME280;66627;29.424;-98.496;2023-02-23T09:37:30;98315.15;;;21.62;50.11
77526;BME280;66627;29.424;-98.496;2023-02-23T09:39:56;98319.53;;;21.11;51.21
77526;BME280;66627;29.424;-98.496;2023-02-23T09:42:31;98318.23;;;21.34;51.27
77526;BME280;66627;29.424;-98.496;2023-02-23T09:44:56;98316.49;;;20.69;52.02
77526;BME280;66627;29.424;-98.496;2023-02-23T09:47:27;98317.33;;;20.19;53.14
77526;BME280;66627;29.424;-98.496;2023-02-23T09:49:39;98319.85;;;20.29;53.51
77526;BME280;66627;29.424;-98.496;2023-02-23T09:52:03;98323.45;;;20.50;53.49
77526;BME280;66627;29.424;-98.496;2023-02-23T09:54:31;98326.27;;;19.85;53.89
77526;BME280;66627;29.424;-98.496;2023-02-23T09:56:54;98330.52;;;20.06;54.47
77526;BME280;66627;29.424;-98.496;2023-02-23T09:59:20;98331.12;;;21.12;52.33
77526;BME280;66627;29.424;-98.496;2023-02-23T10:01:52;98338.36;;;20.33;52.94
77526;BME280;66627;29.424;-98.496;2023-02-23T10:04:14;98340.16;;;21.03;52.08
77526;BME280;66627;29.424;-98.496;2023-02-23T10:06:35;98340.46;;;21.28;52.09
77526;BME280;66627;29.424;-98.496;2023-02-23T10:09:12;98340.87;;;21.12;51.36
77526;BME280;66627;29.424;-98.496;2023-02-23T10:11:32;98344.51;;;21.33;51.65
77526;BME280;66627;29.424;-98.496;2023-02-23T10:14:00;98342.23;;;20.67;52.34
77526;BME280;66627;29.424;-98.496;2023-02-23T10:16:21;98343.23;;;20.60;52.68
77526;BME280;66627;29.424;-98.496;2023-02-23T10:18:48;98344.76;;;19.63;54.65
77526;BME280;66627;29.424;-98.496;2023-02-23T10:21:13;98346.17;;;20.32;53.67
77526;BME280;66627;29.424;-98.496;2023-02-23T10:23:37;98348.57;;;20.45;53.17
77526;BME280;66627;29.424;-98.496;2023-02-23T10:26:00;98351.03;;;20.03;53.15
77526;BME280;66627;29.424;-98.496;2023-02-23T10:28:24;98353.06;;;20.30;53.78
77526;BME280;66627;29.424;-98.496;2023-02-23T10:30:50;98352.66;;;20.22;53.33
77526;BME280;66627;29.424;-98.496;2023-02-23T10:33:19;98354.90;;;20.01;54.51
77526;BME280;66627;29.424;-98.496;2023-02-23T10:35:40;98363.97;;;19.21;56.21
77526;BME280;66627;29.424;-98.496;2023-02-23T10:38:07;98366.85;;;19.08;56.31
77526;BME280;66627;29.424;-98.496;2023-02-23T10:40:32;98362.48;;;19.99;54.67
77526;BME280;66627;29.424;-98.496;2023-02-23T10:42:57;98360.41;;;19.31;56.51
77526;BME280;66627;29.424;-98.496;2023-02-23T10:45:23;98360.75;;;19.30;56.54
77526;BME280;66627;29.424;-98.496;2023-02-23T10:47:49;98360.71;;;19.34;56.14
77526;BME280;66627;29.424;-98.496;2023-02-23T10:50:13;98364.62;;;19.42;55.66
77526;BME280;66627;29.424;-98.496;2023-02-23T10:52:42;98368.01;;;19.21;56.72
77526;BME280;66627;29.424;-98.496;2023-02-23T10:55:06;98375.70;;;18.51;58.36
77526;BME280;66627;29.424;-98.496;2023-02-23T10:57:30;98375.40;;;19.25;56.75
77526;BME280;66627;29.424;-98.496;2023-02-23T11:00:07;98375.91;;;19.18;57.43
77526;BME280;66627;29.424;-98.496;2023-02-23T11:02:24;98383.12;;;19.62;56.54
77526;BME280;66627;29.424;-98.496;2023-02-23T11:04:50;98384.04;;;19.55;56.10
77526;BME280;66627;29.424;-98.496;2023-02-23T11:07:16;98385.06;;;19.86;55.44
77526;BME280;66627;29.424;-98.496;2023-02-23T11:09:36;98386.16;;;19.49;55.76
77526;BME280;66627;29.424;-98.496;2023-02-23T11:12:11;98385.52;;;20.02;55.03
77526;BME280;66627;29.424;-98.496;2023-02-23T11:14:29;98392.37;;;19.49;55.53
77526;BME280;66627;29.424;-98.496;2023-02-23T11:16:55;98395.84;;;19.60;55.98
77526;BME280;66627;29.424;-98.496;2023-02-23T11:19:23;98402.75;;;19.12;57.06
77526;BME280;66627;29.424;-98.496;2023-02-23T11:21:50;98405.63;;;19.16;57.59
77526;BME280;66627;29.424;-98.496;2023-02-23T11:24:17;98412.88;;;18.64;58.69
77526;BME280;66627;29.424;-98.496;2023-02-23T11:26:38;98415.01;;;18.78;57.95
77526;BME280;66627;29.424;-98.496;2023-02-23T11:29:03;98414.38;;;18.59;58.96
77526;BME280;66627;29.424;-98.496;2023-02-23T11:31:31;98420.19;;;19.45;57.27
77526;BME280;66627;29.424;-98.496;2023-02-23T11:33:54;98420.75;;;19.19;57.81
77526;BME280;66627;29.424;-98.496;2023-02-23T11:36:24;98427.21;;;18.75;59.05
77526;BME280;66627;29.424;-98.496;2023-02-23T11:38:44;98429.09;;;19.03;58.63
77526;BME280;66627;29.424;-98.496;2023-02-23T11:41:18;98431.58;;;19.31;58.08
77526;BME280;66627;29.424;-98.496;2023-02-23T11:43:33;98439.41;;;19.34;57.49
77526;BME280;66627;29.424;-98.496;2023-02-23T11:45:59;98444.41;;;19.35;57.61
77526;BME280;66627;29.424;-98.496;2023-02-23T11:48:27;98447.20;;;19.26;57.81
77526;BME280;66627;29.424;-98.496;2023-02-23T11:50:49;98452.84;;;19.01;58.25
77526;BME280;66627;29.424;-98.496;2023-02-23T11:53:16;98460.20;;;18.93;58.52
77526;BME280;66627;29.424;-98.496;2023-02-23T11:55:45;98466.85;;;18.85;58.83
77526;BME280;66627;29.424;-98.496;2023-02-23T11:58:20;98468.40;;;19.33;57.84
77526;BME280;66627;29.424;-98.496;2023-02-23T12:00:31;98478.08;;;18.74;58.99
77526;BME280;66627;29.424;-98.496;2023-02-23T12:02:57;98486.79;;;18.88;58.80
77526;BME280;66627;29.424;-98.496;2023-02-23T12:05:24;98488.32;;;18.50;60.23
77526;BME280;66627;29.424;-98.496;2023-02-23T12:07:52;98493.67;;;18.23;61.07
77526;BME280;66627;29.424;-98.496;2023-02-23T12:10:18;98494.15;;;18.71;59.88
77526;BME280;66627;29.424;-98.496;2023-02-23T12:12:45;98498.90;;;18.21;61.59
77526;BME280;66627;29.424;-98.496;2023-02-23T12:15:09;98489.99;;;18.56;60.42
77526;BME280;66627;29.424;-98.496;2023-02-23T12:17:33;98496.30;;;17.02;63.89
77526;BME280;66627;29.424;-98.496;2023-02-23T12:19:59;98498.68;;;17.75;62.40
77526;BME280;66627;29.424;-98.496;2023-02-23T12:22:23;98499.82;;;17.67;63.10
77526;BME280;66627;29.424;-98.496;2023-02-23T12:24:49;98507.61;;;17.72;63.01
77526;BME280;66627;29.424;-98.496;2023-02-23T12:27:14;98512.99;;;17.73;62.56
77526;BME280;66627;29.424;-98.496;2023-02-23T12:29:40;98519.92;;;17.32;63.45
77526;BME280;66627;29.424;-98.496;2023-02-23T12:32:07;98529.99;;;18.78;60.91
77526;BME280;66627;29.424;-98.496;2023-02-23T12:34:32;98533.45;;;18.86;60.17
77526;BME280;66627;29.424;-98.496;2023-02-23T12:36:56;98543.35;;;19.00;59.82
77526;BME280;66627;29.424;-98.496;2023-02-23T12:39:23;98562.40;;;19.64;58.13
77526;BME280;66627;29.424;-98.496;2023-02-23T12:41:47;98570.81;;;19.48;57.87
77526;BME280;66627;29.424;-98.496;2023-02-23T12:44:19;98582.05;;;20.10;57.10